Terminal Aerodrome Forecast
Issued by NWS Quad Cities IA IL

Home | Current Version | Previous Version | Text Only | Print | Product List | Glossary On
Versions: 1 2 3 4 5 6 7 8 9 10 11 12 13 14 15 16 17 18 19 20 21 22
000
FTUS43 KDVN 172000 AAA
TAFMLI
TAF AMD
KMLI 172034Z 1721/1818 09009KT P6SM BKN035
     FM180600 08003KT 5SM BR SKC
     FM180900 09002KT 1SM BR SKC
      TEMPO 1810/1813 1/2SM FG VV003
     FM181400 12004KT 6SM BR BKN025=

USA.gov is the U.S. government's official web portal to all federal, state and local government web resources and services.